createdAt,value
2023-05-22T00:04:30.247Z,2.53
2023-05-22T00:09:32.729Z,2.92
2023-05-22T00:14:34.874Z,2.35
2023-05-22T00:19:37.123Z,3.50
2023-05-22T00:24:39.341Z,2.67
2023-05-22T00:29:41.534Z,3.88
2023-05-22T00:34:43.902Z,2.70
2023-05-22T00:39:46.817Z,4.07
2023-05-22T00:44:49.954Z,2.95
2023-05-22T00:49:52.970Z,3.90
2023-05-22T00:54:55.228Z,2.90
2023-05-22T00:59:57.584Z,2.60
2023-05-22T01:04:59.810Z,2.05
2023-05-22T01:10:02.011Z,2.88
2023-05-22T01:15:18.329Z,2.97
2023-05-22T01:20:38.172Z,2.97
2023-05-22T01:25:53.819Z,3.42
2023-05-22T01:31:19.251Z,3.30
2023-05-22T01:36:22.882Z,2.50
2023-05-22T01:41:25.932Z,1.90
2023-05-22T01:46:30.283Z,3.53
2023-05-22T01:51:43.406Z,2.85
2023-05-22T01:56:51.285Z,3.47
2023-05-22T02:01:55.837Z,2.40
2023-05-22T02:07:19.849Z,3.30
2023-05-22T02:12:24.005Z,3.28
2023-05-22T02:17:26.397Z,2.63
2023-05-22T02:22:28.649Z,2.20
2023-05-22T02:27:32.580Z,3.10
2023-05-22T02:32:36.162Z,4.50
2023-05-22T02:37:39.003Z,3.67
2023-05-22T02:42:41.916Z,3.78
2023-05-22T02:47:44.364Z,2.72
2023-05-22T02:52:47.741Z,1.83
2023-05-22T02:57:49.938Z,2.65
2023-05-22T03:02:52.251Z,3.33
2023-05-22T03:07:54.573Z,4.95
2023-05-22T03:12:56.818Z,3.13
2023-05-22T03:17:59.771Z,3.92
2023-05-22T03:23:02.522Z,2.75
2023-05-22T03:28:04.952Z,3.78
2023-05-22T03:33:11.803Z,3.55
2023-05-22T03:38:15.094Z,3.95
2023-05-22T03:43:17.790Z,3.70
2023-05-22T03:48:21.237Z,4.55
2023-05-22T03:53:23.554Z,3.10
2023-05-22T03:58:26.007Z,3.15
2023-05-22T04:03:28.722Z,3.58
2023-05-22T04:08:31.010Z,2.42
2023-05-22T04:13:35.522Z,4.38
2023-05-22T04:18:37.680Z,2.83
2023-05-22T04:23:43.370Z,3.42
2023-05-22T04:28:46.316Z,2.42
2023-05-22T04:33:49.930Z,4.03
2023-05-22T04:38:52.940Z,3.50
2023-05-22T04:43:55.209Z,3.03
2023-05-22T04:49:02.126Z,3.60
2023-05-22T04:54:04.842Z,3.15
2023-05-22T04:59:26.677Z,3.28
2023-05-22T05:04:28.945Z,3.72
2023-05-22T05:09:31.469Z,2.75
2023-05-22T05:14:33.627Z,3.58
2023-05-22T05:19:37.173Z,2.25
2023-05-22T05:24:40.024Z,3.22
2023-05-22T05:29:42.773Z,4.45
2023-05-22T05:34:53.616Z,3.53
2023-05-22T05:40:00.422Z,3.80
2023-05-22T05:45:02.820Z,6.35
2023-05-22T05:50:07.572Z,3.30
2023-05-22T05:55:11.198Z,5.05
2023-05-22T06:00:14.062Z,5.25
2023-05-22T06:05:19.202Z,2.85
2023-05-22T06:10:24.898Z,2.53
2023-05-22T06:15:38.157Z,2.20
2023-05-22T06:20:40.781Z,3.08
2023-05-22T06:25:43.594Z,3.80
2023-05-22T06:30:46.162Z,3.60
2023-05-22T06:35:53.222Z,5.10
2023-05-22T06:40:56.061Z,2.95
2023-05-22T06:46:01.519Z,3.67
2023-05-22T06:51:16.612Z,8.70
2023-05-22T06:56:24.840Z,5.68
2023-05-22T07:01:34.134Z,8.70
2023-05-22T07:06:43.705Z,8.43
2023-05-22T07:11:46.940Z,6.07
2023-05-22T07:16:51.472Z,6.87
2023-05-22T07:22:00.890Z,8.32
2023-05-22T07:27:04.518Z,9.15
2023-05-22T07:32:08.656Z,11.82
2023-05-22T07:37:14.260Z,6.13
2023-05-22T07:42:18.471Z,7.70
2023-05-22T07:47:27.932Z,7.60
2023-05-22T07:52:31.664Z,10.32
2023-05-22T07:57:36.255Z,8.10
2023-05-22T08:02:46.899Z,8.10
2023-05-22T08:07:49.206Z,10.07
2023-05-22T08:12:51.416Z,6.22
2023-05-22T08:17:53.631Z,7.30
2023-05-22T08:22:55.886Z,7.63
2023-05-22T08:27:58.078Z,10.80
2023-05-22T08:33:00.299Z,9.60
2023-05-22T08:38:02.448Z,10.15
2023-05-22T08:43:06.005Z,8.48
2023-05-22T08:48:10.111Z,8.50
2023-05-22T08:53:14.490Z,4.15
2023-05-22T08:58:18.217Z,7.63
2023-05-22T09:03:21.765Z,6.85
2023-05-22T09:08:24.224Z,5.63
2023-05-22T09:13:27.509Z,7.47
2023-05-22T09:18:30.306Z,6.28
2023-05-22T09:23:32.582Z,9.02
2023-05-22T09:28:36.108Z,5.18
2023-05-22T09:33:38.393Z,8.43
2023-05-22T09:38:40.652Z,5.22
2023-05-22T09:43:51.040Z,8.55
2023-05-22T09:48:53.736Z,7.00
2023-05-22T09:54:06.853Z,7.65
2023-05-22T09:59:10.180Z,4.47
2023-05-22T10:04:16.757Z,8.88
2023-05-22T10:09:23.574Z,4.55
2023-05-22T10:14:26.312Z,4.82
2023-05-22T10:19:32.816Z,3.60
2023-05-22T10:24:35.622Z,6.25
2023-05-22T10:29:45.013Z,6.40
2023-05-22T10:34:59.578Z,8.18
2023-05-22T10:40:21.730Z,6.07
2023-05-22T10:45:27.148Z,4.82
2023-05-22T10:50:29.471Z,4.22
2023-05-22T10:55:31.905Z,6.00
2023-05-22T11:00:38.215Z,4.03
2023-05-22T11:05:41.119Z,4.68
2023-05-22T11:10:57.229Z,6.13
2023-05-22T11:16:04.391Z,6.85
2023-05-22T11:21:10.549Z,7.35
2023-05-22T11:26:26.338Z,5.07
2023-05-22T11:31:30.604Z,4.15
2023-05-22T11:36:33.753Z,5.28
2023-05-22T11:41:36.710Z,4.05
2023-05-22T11:46:39.971Z,5.40
2023-05-22T11:51:42.289Z,4.95
2023-05-22T11:56:45.449Z,7.82
2023-05-22T12:01:50.078Z,5.93
2023-05-22T12:06:53.451Z,5.13
2023-05-22T12:11:59.226Z,4.95
2023-05-22T12:17:04.571Z,3.10
2023-05-22T12:22:07.003Z,4.32
2023-05-22T12:27:10.475Z,5.10
2023-05-22T12:32:13.548Z,8.13
2023-05-22T12:37:25.228Z,6.53
2023-05-22T12:42:28.479Z,5.70
2023-05-22T12:47:30.808Z,4.65
2023-05-22T12:52:33.160Z,6.35
2023-05-22T12:57:35.380Z,7.75
2023-05-22T13:02:37.672Z,6.05
2023-05-22T13:07:39.829Z,10.85
2023-05-22T13:12:43.179Z,8.27
2023-05-22T13:17:45.933Z,9.93
2023-05-22T13:22:48.297Z,6.78
2023-05-22T13:27:50.705Z,9.40
2023-05-22T13:32:53.033Z,7.13
2023-05-22T13:37:55.338Z,8.20
2023-05-22T13:42:57.883Z,8.60
2023-05-22T13:48:00.194Z,7.13
2023-05-22T13:53:02.469Z,7.85
2023-05-22T13:58:05.010Z,15.23
2023-05-22T14:03:07.285Z,7.40
2023-05-22T14:08:09.855Z,8.07
2023-05-22T14:13:12.020Z,6.05
2023-05-22T14:18:16.625Z,7.35
2023-05-22T14:23:19.120Z,6.23
2023-05-22T14:28:21.248Z,9.35
2023-05-22T14:33:23.463Z,7.70
2023-05-22T14:38:26.554Z,7.53
2023-05-22T14:43:28.788Z,9.38
2023-05-22T14:48:31.112Z,11.35
2023-05-22T14:53:33.386Z,8.85
2023-05-22T14:58:35.755Z,9.45
2023-05-22T15:03:38.243Z,9.25
2023-05-22T15:08:40.527Z,7.22
2023-05-22T15:13:42.725Z,6.80
2023-05-22T15:18:45.002Z,8.43
2023-05-22T15:23:48.097Z,8.25
2023-05-22T15:28:50.317Z,6.25
2023-05-22T15:33:52.515Z,8.68
2023-05-22T15:38:54.831Z,9.18
2023-05-22T15:43:57.138Z,6.25
2023-05-22T15:48:59.313Z,7.53
2023-05-22T15:54:01.552Z,6.85
2023-05-22T15:59:03.827Z,7.30
2023-05-22T16:04:06.341Z,11.13
2023-05-22T16:09:09.462Z,8.57
2023-05-22T16:14:12.050Z,4.80
2023-05-22T16:19:14.624Z,8.88
2023-05-22T16:24:16.868Z,5.22
2023-05-22T16:29:22.123Z,6.32
2023-05-22T16:34:24.378Z,7.22
2023-05-22T16:39:29.714Z,6.47
2023-05-22T16:44:32.058Z,6.07
2023-05-22T16:49:34.252Z,5.65
2023-05-22T16:54:39.759Z,5.38
2023-05-22T16:59:42.544Z,4.40
2023-05-22T17:04:44.784Z,7.43
2023-05-22T17:09:47.023Z,5.65
2023-05-22T17:14:49.230Z,6.72
2023-05-22T17:19:52.735Z,5.50
2023-05-22T17:24:56.087Z,4.97
2023-05-22T17:29:58.519Z,5.25
2023-05-22T17:35:01.906Z,6.05
2023-05-22T17:40:04.845Z,6.03
2023-05-22T17:45:07.803Z,3.83
2023-05-22T17:50:10.639Z,5.78
2023-05-22T17:55:13.024Z,8.13
2023-05-22T18:00:17.121Z,5.93
2023-05-22T18:05:19.756Z,4.50
2023-05-22T18:10:24.473Z,3.35
2023-05-22T18:15:26.616Z,4.20
2023-05-22T18:20:28.748Z,6.38
2023-05-22T18:25:31.017Z,5.85
2023-05-22T18:30:33.274Z,7.22
2023-05-22T18:35:35.564Z,5.70
2023-05-22T18:40:37.862Z,6.65
2023-05-22T18:45:40.175Z,6.47
2023-05-22T18:50:42.477Z,4.88
2023-05-22T18:55:45.672Z,6.07
2023-05-22T19:00:48.525Z,5.70
2023-05-22T19:05:50.811Z,5.20
2023-05-22T19:10:55.407Z,3.53
2023-05-22T19:15:57.651Z,4.35
2023-05-22T19:21:00.006Z,3.80
2023-05-22T19:26:02.631Z,5.25
2023-05-22T19:31:04.929Z,8.13
2023-05-22T19:36:07.217Z,5.45
2023-05-22T19:41:09.496Z,4.80
2023-05-22T19:46:11.800Z,3.28
2023-05-22T19:51:13.997Z,3.47
2023-05-22T19:56:16.244Z,4.10
2023-05-22T20:01:18.726Z,6.45
2023-05-22T20:06:20.987Z,3.22
2023-05-22T20:11:23.213Z,5.85
2023-05-22T20:16:28.561Z,5.22
2023-05-22T20:21:32.230Z,4.53
2023-05-22T20:26:34.434Z,5.57
2023-05-22T20:31:37.174Z,3.83
2023-05-22T20:36:39.900Z,4.65
2023-05-22T20:41:42.116Z,5.72
2023-05-22T20:46:44.383Z,4.97
2023-05-22T20:51:50.998Z,3.80
2023-05-22T20:56:54.795Z,5.22
2023-05-22T21:01:57.906Z,7.75
2023-05-22T21:07:00.171Z,4.43
2023-05-22T21:12:02.682Z,5.78
2023-05-22T21:17:04.981Z,4.22
2023-05-22T21:22:07.348Z,7.35
2023-05-22T21:27:09.480Z,4.75
2023-05-22T21:32:11.777Z,5.55
2023-05-22T21:37:14.117Z,6.05
2023-05-22T21:42:16.587Z,7.55
2023-05-22T21:47:18.713Z,7.20
2023-05-22T21:52:20.924Z,10.95
2023-05-22T21:57:23.719Z,10.98
2023-05-22T22:02:26.143Z,9.05
2023-05-22T22:07:28.408Z,7.18
2023-05-22T22:12:30.714Z,6.60
2023-05-22T22:17:34.869Z,4.53
2023-05-22T22:22:37.109Z,5.70
2023-05-22T22:27:39.273Z,6.32
2023-05-22T22:32:41.537Z,3.10
2023-05-22T22:37:43.993Z,3.47
2023-05-22T22:42:46.129Z,3.88
2023-05-22T22:47:48.504Z,4.30
2023-05-22T22:52:51.227Z,4.80
2023-05-22T22:57:53.512Z,3.58
2023-05-22T23:02:55.729Z,3.63
2023-05-22T23:08:02.035Z,3.38
2023-05-22T23:13:04.457Z,4.97
2023-05-22T23:18:06.775Z,4.13
2023-05-22T23:23:08.936Z,4.07
2023-05-22T23:28:11.114Z,4.75
2023-05-22T23:33:13.297Z,3.60
2023-05-22T23:38:15.503Z,4.88
2023-05-22T23:43:20.579Z,4.75
2023-05-22T23:48:22.959Z,3.88
2023-05-22T23:53:25.181Z,3.47
2023-05-22T23:58:29.580Z,3.20
